sensor_id;sensor_type;location;lat;lon;timestamp;P1;durP1;ratioP1;P2;durP2;ratioP2
2299;SDS011;1158;48.750;9.078;2023-03-05T00:02:05;39.53;;;18.70;;
2299;SDS011;1158;48.750;9.078;2023-03-05T00:04:31;39.80;;;18.90;;
2299;SDS011;1158;48.750;9.078;2023-03-05T00:06:58;44.50;;;20.50;;
2299;SDS011;1158;48.750;9.078;2023-03-05T00:09:26;38.40;;;20.17;;
2299;SDS011;1158;48.750;9.078;2023-03-05T00:11:53;44.93;;;20.03;;
2299;SDS011;1158;48.750;9.078;2023-03-05T00:14:19;40.43;;;19.87;;
2299;SDS011;1158;48.750;9.078;2023-03-05T00:16:46;37.03;;;19.33;;
2299;SDS011;1158;48.750;9.078;2023-03-05T00:19:13;41.10;;;19.37;;
2299;SDS011;1158;48.750;9.078;2023-03-05T00:21:40;39.57;;;18.57;;
2299;SDS011;1158;48.750;9.078;2023-03-05T00:24:09;38.50;;;19.37;;
2299;SDS011;1158;48.750;9.078;2023-03-05T00:26:40;38.07;;;18.03;;
2299;SDS011;1158;48.750;9.078;2023-03-05T00:29:07;38.30;;;19.03;;
2299;SDS011;1158;48.750;9.078;2023-03-05T00:31:36;40.50;;;20.40;;
2299;SDS011;1158;48.750;9.078;2023-03-05T00:34:04;37.40;;;19.50;;
2299;SDS011;1158;48.750;9.078;2023-03-05T00:36:32;40.23;;;19.80;;
2299;SDS011;1158;48.750;9.078;2023-03-05T00:39:00;40.03;;;19.23;;
2299;SDS011;1158;48.750;9.078;2023-03-05T00:41:27;39.80;;;20.03;;
2299;SDS011;1158;48.750;9.078;2023-03-05T00:43:55;39.13;;;17.73;;
2299;SDS011;1158;48.750;9.078;2023-03-05T00:46:21;47.10;;;19.30;;
2299;SDS011;1158;48.750;9.078;2023-03-05T00:48:48;42.80;;;19.90;;
2299;SDS011;1158;48.750;9.078;2023-03-05T00:51:15;41.93;;;18.90;;
2299;SDS011;1158;48.750;9.078;2023-03-05T00:53:42;37.57;;;18.57;;
2299;SDS011;1158;48.750;9.078;2023-03-05T00:56:08;39.70;;;17.70;;
2299;SDS011;1158;48.750;9.078;2023-03-05T00:58:35;38.83;;;17.07;;
2299;SDS011;1158;48.750;9.078;2023-03-05T01:01:04;35.87;;;15.87;;
2299;SDS011;1158;48.750;9.078;2023-03-05T01:03:32;34.53;;;16.40;;
2299;SDS011;1158;48.750;9.078;2023-03-05T01:06:00;33.40;;;18.33;;
2299;SDS011;1158;48.750;9.078;2023-03-05T01:08:31;35.80;;;17.87;;
2299;SDS011;1158;48.750;9.078;2023-03-05T01:10:58;36.87;;;17.90;;
2299;SDS011;1158;48.750;9.078;2023-03-05T01:13:24;42.63;;;20.40;;
2299;SDS011;1158;48.750;9.078;2023-03-05T01:15:51;41.10;;;18.77;;
2299;SDS011;1158;48.750;9.078;2023-03-05T01:18:19;45.40;;;20.23;;
2299;SDS011;1158;48.750;9.078;2023-03-05T01:20:46;40.63;;;18.60;;
2299;SDS011;1158;48.750;9.078;2023-03-05T01:23:13;35.43;;;17.57;;
2299;SDS011;1158;48.750;9.078;2023-03-05T01:25:40;39.63;;;17.80;;
2299;SDS011;1158;48.750;9.078;2023-03-05T01:28:07;40.13;;;19.23;;
2299;SDS011;1158;48.750;9.078;2023-03-05T01:30:34;40.77;;;18.53;;
2299;SDS011;1158;48.750;9.078;2023-03-05T01:33:01;41.63;;;16.97;;
2299;SDS011;1158;48.750;9.078;2023-03-05T01:35:29;42.83;;;19.07;;
2299;SDS011;1158;48.750;9.078;2023-03-05T01:37:56;40.47;;;18.40;;
2299;SDS011;1158;48.750;9.078;2023-03-05T01:40:24;42.30;;;17.43;;
2299;SDS011;1158;48.750;9.078;2023-03-05T01:42:57;40.90;;;17.43;;
2299;SDS011;1158;48.750;9.078;2023-03-05T01:45:25;39.17;;;16.23;;
2299;SDS011;1158;48.750;9.078;2023-03-05T01:47:55;34.00;;;16.70;;
2299;SDS011;1158;48.750;9.078;2023-03-05T01:50:22;39.33;;;16.90;;
2299;SDS011;1158;48.750;9.078;2023-03-05T01:52:53;36.43;;;16.10;;
2299;SDS011;1158;48.750;9.078;2023-03-05T01:55:25;40.63;;;17.90;;
2299;SDS011;1158;48.750;9.078;2023-03-05T01:57:55;33.90;;;15.27;;
2299;SDS011;1158;48.750;9.078;2023-03-05T02:00:26;30.90;;;14.90;;
2299;SDS011;1158;48.750;9.078;2023-03-05T02:02:55;36.93;;;17.50;;
2299;SDS011;1158;48.750;9.078;2023-03-05T02:05:28;36.07;;;15.20;;
2299;SDS011;1158;48.750;9.078;2023-03-05T02:07:57;33.50;;;16.00;;
2299;SDS011;1158;48.750;9.078;2023-03-05T02:10:26;35.17;;;15.53;;
2299;SDS011;1158;48.750;9.078;2023-03-05T02:12:57;35.20;;;14.83;;
2299;SDS011;1158;48.750;9.078;2023-03-05T02:15:26;35.40;;;15.97;;
2299;SDS011;1158;48.750;9.078;2023-03-05T02:17:54;35.70;;;16.30;;
2299;SDS011;1158;48.750;9.078;2023-03-05T02:20:22;36.37;;;16.03;;
2299;SDS011;1158;48.750;9.078;2023-03-05T02:22:51;30.93;;;15.77;;
2299;SDS011;1158;48.750;9.078;2023-03-05T02:25:20;30.97;;;15.90;;
2299;SDS011;1158;48.750;9.078;2023-03-05T02:27:51;37.33;;;17.33;;
2299;SDS011;1158;48.750;9.078;2023-03-05T02:30:22;35.07;;;16.43;;
2299;SDS011;1158;48.750;9.078;2023-03-05T02:32:49;31.50;;;17.07;;
2299;SDS011;1158;48.750;9.078;2023-03-05T02:35:15;38.57;;;17.20;;
2299;SDS011;1158;48.750;9.078;2023-03-05T02:37:42;33.20;;;16.13;;
2299;SDS011;1158;48.750;9.078;2023-03-05T02:40:11;34.67;;;15.90;;
2299;SDS011;1158;48.750;9.078;2023-03-05T02:42:39;32.67;;;15.53;;
2299;SDS011;1158;48.750;9.078;2023-03-05T02:45:06;31.30;;;15.30;;
2299;SDS011;1158;48.750;9.078;2023-03-05T02:47:34;29.83;;;15.90;;
2299;SDS011;1158;48.750;9.078;2023-03-05T02:50:01;33.00;;;16.13;;
2299;SDS011;1158;48.750;9.078;2023-03-05T02:52:28;33.67;;;15.00;;
2299;SDS011;1158;48.750;9.078;2023-03-05T02:54:56;35.03;;;15.27;;
2299;SDS011;1158;48.750;9.078;2023-03-05T02:57:24;34.63;;;14.90;;
2299;SDS011;1158;48.750;9.078;2023-03-05T02:59:50;34.87;;;16.53;;
2299;SDS011;1158;48.750;9.078;2023-03-05T03:02:17;29.80;;;13.93;;
2299;SDS011;1158;48.750;9.078;2023-03-05T03:04:44;30.40;;;17.07;;
2299;SDS011;1158;48.750;9.078;2023-03-05T03:07:11;34.27;;;14.70;;
2299;SDS011;1158;48.750;9.078;2023-03-05T03:09:39;33.47;;;15.10;;
2299;SDS011;1158;48.750;9.078;2023-03-05T03:12:07;34.23;;;17.57;;
2299;SDS011;1158;48.750;9.078;2023-03-05T03:14:36;37.23;;;15.07;;
2299;SDS011;1158;48.750;9.078;2023-03-05T03:17:05;34.83;;;15.80;;
2299;SDS011;1158;48.750;9.078;2023-03-05T03:19:32;34.27;;;16.37;;
2299;SDS011;1158;48.750;9.078;2023-03-05T03:21:59;34.50;;;14.83;;
2299;SDS011;1158;48.750;9.078;2023-03-05T03:24:27;34.73;;;16.30;;
2299;SDS011;1158;48.750;9.078;2023-03-05T03:26:54;32.90;;;16.43;;
2299;SDS011;1158;48.750;9.078;2023-03-05T03:29:21;37.97;;;15.63;;
2299;SDS011;1158;48.750;9.078;2023-03-05T03:31:49;28.63;;;14.60;;
2299;SDS011;1158;48.750;9.078;2023-03-05T03:34:16;31.43;;;13.60;;
2299;SDS011;1158;48.750;9.078;2023-03-05T03:36:43;28.90;;;13.90;;
2299;SDS011;1158;48.750;9.078;2023-03-05T03:39:11;34.67;;;14.93;;
2299;SDS011;1158;48.750;9.078;2023-03-05T03:41:40;28.33;;;14.87;;
2299;SDS011;1158;48.750;9.078;2023-03-05T03:44:07;29.90;;;15.07;;
2299;SDS011;1158;48.750;9.078;2023-03-05T03:46:34;32.47;;;16.00;;
2299;SDS011;1158;48.750;9.078;2023-03-05T03:49:03;33.90;;;16.00;;
2299;SDS011;1158;48.750;9.078;2023-03-05T03:51:30;32.70;;;14.37;;
2299;SDS011;1158;48.750;9.078;2023-03-05T03:53:57;34.23;;;15.33;;
2299;SDS011;1158;48.750;9.078;2023-03-05T03:56:24;35.50;;;15.43;;
2299;SDS011;1158;48.750;9.078;2023-03-05T03:58:51;34.87;;;15.97;;
2299;SDS011;1158;48.750;9.078;2023-03-05T04:01:18;40.13;;;17.73;;
2299;SDS011;1158;48.750;9.078;2023-03-05T04:03:45;35.00;;;16.30;;
2299;SDS011;1158;48.750;9.078;2023-03-05T04:06:13;45.73;;;21.17;;
2299;SDS011;1158;48.750;9.078;2023-03-05T04:08:40;44.90;;;18.73;;
2299;SDS011;1158;48.750;9.078;2023-03-05T04:11:07;33.70;;;16.33;;
2299;SDS011;1158;48.750;9.078;2023-03-05T04:13:34;36.63;;;17.00;;
2299;SDS011;1158;48.750;9.078;2023-03-05T04:16:01;44.57;;;18.47;;
2299;SDS011;1158;48.750;9.078;2023-03-05T04:18:28;36.30;;;18.00;;
2299;SDS011;1158;48.750;9.078;2023-03-05T04:20:54;38.90;;;19.47;;
2299;SDS011;1158;48.750;9.078;2023-03-05T04:23:22;37.43;;;16.93;;
2299;SDS011;1158;48.750;9.078;2023-03-05T04:25:49;38.13;;;17.40;;
2299;SDS011;1158;48.750;9.078;2023-03-05T04:28:16;43.93;;;17.67;;
2299;SDS011;1158;48.750;9.078;2023-03-05T04:30:42;38.23;;;17.97;;
2299;SDS011;1158;48.750;9.078;2023-03-05T04:33:09;36.63;;;17.57;;
2299;SDS011;1158;48.750;9.078;2023-03-05T04:35:36;42.10;;;17.67;;
2299;SDS011;1158;48.750;9.078;2023-03-05T04:38:03;41.60;;;17.30;;
2299;SDS011;1158;48.750;9.078;2023-03-05T04:40:31;41.97;;;18.87;;
2299;SDS011;1158;48.750;9.078;2023-03-05T04:42:58;40.90;;;17.63;;
2299;SDS011;1158;48.750;9.078;2023-03-05T04:45:24;34.20;;;16.10;;
2299;SDS011;1158;48.750;9.078;2023-03-05T04:47:51;41.33;;;16.83;;
2299;SDS011;1158;48.750;9.078;2023-03-05T04:50:18;36.70;;;16.00;;
2299;SDS011;1158;48.750;9.078;2023-03-05T04:52:45;33.23;;;14.37;;
2299;SDS011;1158;48.750;9.078;2023-03-05T04:55:12;31.43;;;14.97;;
2299;SDS011;1158;48.750;9.078;2023-03-05T04:57:42;38.60;;;15.77;;
2299;SDS011;1158;48.750;9.078;2023-03-05T05:00:09;36.67;;;15.17;;
2299;SDS011;1158;48.750;9.078;2023-03-05T05:02:39;35.37;;;14.27;;
2299;SDS011;1158;48.750;9.078;2023-03-05T05:05:06;31.87;;;13.13;;
2299;SDS011;1158;48.750;9.078;2023-03-05T05:07:33;33.40;;;14.70;;
2299;SDS011;1158;48.750;9.078;2023-03-05T05:10:00;24.90;;;13.23;;
2299;SDS011;1158;48.750;9.078;2023-03-05T05:12:27;28.53;;;14.00;;
2299;SDS011;1158;48.750;9.078;2023-03-05T05:14:55;35.63;;;13.40;;
2299;SDS011;1158;48.750;9.078;2023-03-05T05:17:23;32.90;;;14.83;;
2299;SDS011;1158;48.750;9.078;2023-03-05T05:19:50;41.50;;;15.80;;
2299;SDS011;1158;48.750;9.078;2023-03-05T05:22:16;30.13;;;13.30;;
2299;SDS011;1158;48.750;9.078;2023-03-05T05:24:43;34.10;;;13.93;;
2299;SDS011;1158;48.750;9.078;2023-03-05T05:27:10;31.57;;;14.53;;
2299;SDS011;1158;48.750;9.078;2023-03-05T05:29:36;37.10;;;16.30;;
2299;SDS011;1158;48.750;9.078;2023-03-05T05:32:05;41.43;;;15.97;;
2299;SDS011;1158;48.750;9.078;2023-03-05T05:34:32;34.00;;;15.00;;
2299;SDS011;1158;48.750;9.078;2023-03-05T05:36:59;34.57;;;15.80;;
2299;SDS011;1158;48.750;9.078;2023-03-05T05:39:25;33.60;;;14.50;;
2299;SDS011;1158;48.750;9.078;2023-03-05T05:41:52;28.73;;;15.47;;
2299;SDS011;1158;48.750;9.078;2023-03-05T05:44:19;41.20;;;15.27;;
2299;SDS011;1158;48.750;9.078;2023-03-05T05:46:45;30.57;;;13.43;;
2299;SDS011;1158;48.750;9.078;2023-03-05T05:49:13;30.70;;;14.67;;
2299;SDS011;1158;48.750;9.078;2023-03-05T05:51:40;37.57;;;15.70;;
2299;SDS011;1158;48.750;9.078;2023-03-05T05:54:08;27.80;;;14.90;;
2299;SDS011;1158;48.750;9.078;2023-03-05T05:56:37;36.50;;;16.00;;
2299;SDS011;1158;48.750;9.078;2023-03-05T05:59:04;36.23;;;14.47;;
2299;SDS011;1158;48.750;9.078;2023-03-05T06:01:31;42.13;;;15.93;;
2299;SDS011;1158;48.750;9.078;2023-03-05T06:03:58;37.60;;;14.07;;
2299;SDS011;1158;48.750;9.078;2023-03-05T06:06:26;31.47;;;15.40;;
2299;SDS011;1158;48.750;9.078;2023-03-05T06:08:54;36.70;;;16.43;;
2299;SDS011;1158;48.750;9.078;2023-03-05T06:11:21;31.50;;;14.40;;
2299;SDS011;1158;48.750;9.078;2023-03-05T06:13:48;37.47;;;15.37;;
2299;SDS011;1158;48.750;9.078;2023-03-05T06:16:16;40.20;;;15.20;;
2299;SDS011;1158;48.750;9.078;2023-03-05T06:18:44;31.83;;;15.10;;
2299;SDS011;1158;48.750;9.078;2023-03-05T06:21:12;36.20;;;15.53;;
2299;SDS011;1158;48.750;9.078;2023-03-05T06:23:43;39.97;;;15.20;;
2299;SDS011;1158;48.750;9.078;2023-03-05T06:26:11;37.20;;;15.73;;
2299;SDS011;1158;48.750;9.078;2023-03-05T06:28:39;36.17;;;14.27;;
2299;SDS011;1158;48.750;9.078;2023-03-05T06:31:07;37.00;;;14.10;;
2299;SDS011;1158;48.750;9.078;2023-03-05T06:33:35;31.80;;;14.60;;
2299;SDS011;1158;48.750;9.078;2023-03-05T06:36:02;28.63;;;13.73;;
2299;SDS011;1158;48.750;9.078;2023-03-05T06:38:29;37.53;;;14.20;;
2299;SDS011;1158;48.750;9.078;2023-03-05T06:41:00;28.37;;;14.07;;
2299;SDS011;1158;48.750;9.078;2023-03-05T06:43:29;31.90;;;13.37;;
2299;SDS011;1158;48.750;9.078;2023-03-05T06:46:00;33.23;;;14.30;;
2299;SDS011;1158;48.750;9.078;2023-03-05T06:48:28;30.63;;;14.90;;
2299;SDS011;1158;48.750;9.078;2023-03-05T06:50:55;32.93;;;15.10;;
2299;SDS011;1158;48.750;9.078;2023-03-05T06:53:22;28.77;;;14.30;;
2299;SDS011;1158;48.750;9.078;2023-03-05T06:55:49;28.97;;;12.30;;
2299;SDS011;1158;48.750;9.078;2023-03-05T06:58:17;30.53;;;15.20;;
2299;SDS011;1158;48.750;9.078;2023-03-05T07:00:43;31.10;;;13.57;;
2299;SDS011;1158;48.750;9.078;2023-03-05T07:03:10;33.00;;;14.60;;
2299;SDS011;1158;48.750;9.078;2023-03-05T07:05:37;27.97;;;15.23;;
2299;SDS011;1158;48.750;9.078;2023-03-05T07:08:04;38.73;;;15.03;;
2299;SDS011;1158;48.750;9.078;2023-03-05T07:10:31;34.97;;;15.10;;
2299;SDS011;1158;48.750;9.078;2023-03-05T07:13:01;32.50;;;15.57;;
2299;SDS011;1158;48.750;9.078;2023-03-05T07:15:29;33.57;;;16.67;;
2299;SDS011;1158;48.750;9.078;2023-03-05T07:17:56;34.50;;;15.47;;
2299;SDS011;1158;48.750;9.078;2023-03-05T07:20:22;33.27;;;16.40;;
2299;SDS011;1158;48.750;9.078;2023-03-05T07:22:49;36.27;;;14.93;;
2299;SDS011;1158;48.750;9.078;2023-03-05T07:25:16;34.27;;;15.23;;
2299;SDS011;1158;48.750;9.078;2023-03-05T07:27:45;30.60;;;15.10;;
2299;SDS011;1158;48.750;9.078;2023-03-05T07:30:12;34.73;;;15.20;;
2299;SDS011;1158;48.750;9.078;2023-03-05T07:32:41;29.70;;;14.73;;
2299;SDS011;1158;48.750;9.078;2023-03-05T07:35:08;35.00;;;15.50;;
2299;SDS011;1158;48.750;9.078;2023-03-05T07:37:35;27.33;;;14.53;;
2299;SDS011;1158;48.750;9.078;2023-03-05T07:40:02;31.83;;;15.20;;
2299;SDS011;1158;48.750;9.078;2023-03-05T07:42:30;30.67;;;14.90;;
2299;SDS011;1158;48.750;9.078;2023-03-05T07:44:56;34.00;;;15.47;;
2299;SDS011;1158;48.750;9.078;2023-03-05T07:47:23;36.60;;;15.47;;
2299;SDS011;1158;48.750;9.078;2023-03-05T07:49:51;34.13;;;16.07;;
2299;SDS011;1158;48.750;9.078;2023-03-05T07:52:18;35.33;;;15.53;;
2299;SDS011;1158;48.750;9.078;2023-03-05T07:54:45;32.90;;;15.23;;
2299;SDS011;1158;48.750;9.078;2023-03-05T07:57:13;30.60;;;15.10;;
2299;SDS011;1158;48.750;9.078;2023-03-05T07:59:40;31.43;;;15.10;;
2299;SDS011;1158;48.750;9.078;2023-03-05T08:02:08;37.77;;;14.80;;
2299;SDS011;1158;48.750;9.078;2023-03-05T08:04:36;31.20;;;14.40;;
2299;SDS011;1158;48.750;9.078;2023-03-05T08:07:04;34.53;;;15.70;;
2299;SDS011;1158;48.750;9.078;2023-03-05T08:09:30;27.40;;;14.40;;
2299;SDS011;1158;48.750;9.078;2023-03-05T08:11:57;29.63;;;15.40;;
2299;SDS011;1158;48.750;9.078;2023-03-05T08:14:24;33.47;;;15.20;;
2299;SDS011;1158;48.750;9.078;2023-03-05T08:16:50;34.97;;;16.30;;
2299;SDS011;1158;48.750;9.078;2023-03-05T08:19:17;34.60;;;16.80;;
2299;SDS011;1158;48.750;9.078;2023-03-05T08:21:45;34.10;;;16.70;;
2299;SDS011;1158;48.750;9.078;2023-03-05T08:24:13;36.97;;;18.27;;
2299;SDS011;1158;48.750;9.078;2023-03-05T08:26:40;31.20;;;16.50;;
2299;SDS011;1158;48.750;9.078;2023-03-05T08:29:07;32.50;;;16.13;;
2299;SDS011;1158;48.750;9.078;2023-03-05T08:31:35;34.40;;;15.43;;
2299;SDS011;1158;48.750;9.078;2023-03-05T08:34:03;33.33;;;15.53;;
2299;SDS011;1158;48.750;9.078;2023-03-05T08:36:31;27.97;;;15.33;;
2299;SDS011;1158;48.750;9.078;2023-03-05T08:38:58;27.27;;;14.70;;
2299;SDS011;1158;48.750;9.078;2023-03-05T08:41:26;28.73;;;15.23;;
2299;SDS011;1158;48.750;9.078;2023-03-05T08:43:53;36.13;;;16.20;;
2299;SDS011;1158;48.750;9.078;2023-03-05T08:46:19;27.30;;;15.13;;
2299;SDS011;1158;48.750;9.078;2023-03-05T08:48:46;44.43;;;17.40;;
2299;SDS011;1158;48.750;9.078;2023-03-05T08:51:13;33.30;;;15.53;;
2299;SDS011;1158;48.750;9.078;2023-03-05T08:53:41;33.73;;;15.80;;
2299;SDS011;1158;48.750;9.078;2023-03-05T08:56:09;31.90;;;15.90;;
2299;SDS011;1158;48.750;9.078;2023-03-05T08:58:37;29.93;;;16.23;;
2299;SDS011;1158;48.750;9.078;2023-03-05T09:01:04;28.90;;;14.43;;
2299;SDS011;1158;48.750;9.078;2023-03-05T09:03:31;33.57;;;16.77;;
2299;SDS011;1158;48.750;9.078;2023-03-05T09:05:59;35.03;;;15.47;;
2299;SDS011;1158;48.750;9.078;2023-03-05T09:08:26;32.70;;;16.70;;
2299;SDS011;1158;48.750;9.078;2023-03-05T09:10:54;31.87;;;16.10;;
2299;SDS011;1158;48.750;9.078;2023-03-05T09:13:22;34.07;;;16.30;;
2299;SDS011;1158;48.750;9.078;2023-03-05T09:15:54;27.60;;;15.70;;
2299;SDS011;1158;48.750;9.078;2023-03-05T09:18:20;29.17;;;15.10;;
2299;SDS011;1158;48.750;9.078;2023-03-05T09:20:47;27.63;;;15.53;;
2299;SDS011;1158;48.750;9.078;2023-03-05T09:23:14;34.47;;;17.50;;
2299;SDS011;1158;48.750;9.078;2023-03-05T09:25:40;26.83;;;14.97;;
2299;SDS011;1158;48.750;9.078;2023-03-05T09:28:07;27.13;;;15.07;;
2299;SDS011;1158;48.750;9.078;2023-03-05T09:30:34;33.93;;;15.07;;
2299;SDS011;1158;48.750;9.078;2023-03-05T09:33:03;31.93;;;16.30;;
2299;SDS011;1158;48.750;9.078;2023-03-05T09:35:32;25.97;;;15.47;;
2299;SDS011;1158;48.750;9.078;2023-03-05T09:37:59;34.73;;;17.60;;
2299;SDS011;1158;48.750;9.078;2023-03-05T09:40:27;31.43;;;17.50;;
2299;SDS011;1158;48.750;9.078;2023-03-05T09:43:04;27.23;;;15.30;;
2299;SDS011;1158;48.750;9.078;2023-03-05T09:45:42;31.80;;;16.30;;
2299;SDS011;1158;48.750;9.078;2023-03-05T09:48:20;32.17;;;16.30;;
2299;SDS011;1158;48.750;9.078;2023-03-05T09:50:51;32.23;;;18.10;;
2299;SDS011;1158;48.750;9.078;2023-03-05T09:53:22;33.50;;;16.70;;
2299;SDS011;1158;48.750;9.078;2023-03-05T09:55:56;31.93;;;16.17;;
2299;SDS011;1158;48.750;9.078;2023-03-05T09:58:30;32.33;;;17.30;;
2299;SDS011;1158;48.750;9.078;2023-03-05T10:01:02;27.63;;;15.87;;
2299;SDS011;1158;48.750;9.078;2023-03-05T10:03:35;30.37;;;16.97;;
2299;SDS011;1158;48.750;9.078;2023-03-05T10:06:12;31.63;;;15.07;;
2299;SDS011;1158;48.750;9.078;2023-03-05T10:08:45;30.33;;;15.53;;
2299;SDS011;1158;48.750;9.078;2023-03-05T10:11:21;33.17;;;16.10;;
2299;SDS011;1158;48.750;9.078;2023-03-05T10:14:04;32.80;;;16.33;;
2299;SDS011;1158;48.750;9.078;2023-03-05T10:16:40;33.03;;;16.90;;
2299;SDS011;1158;48.750;9.078;2023-03-05T10:19:20;28.20;;;16.23;;
2299;SDS011;1158;48.750;9.078;2023-03-05T10:22:10;29.97;;;15.50;;
2299;SDS011;1158;48.750;9.078;2023-03-05T10:24:43;29.53;;;15.90;;
2299;SDS011;1158;48.750;9.078;2023-03-05T10:27:29;32.83;;;18.37;;
2299;SDS011;1158;48.750;9.078;2023-03-05T10:30:03;33.43;;;16.77;;
2299;SDS011;1158;48.750;9.078;2023-03-05T10:32:40;45.03;;;22.50;;
2299;SDS011;1158;48.750;9.078;2023-03-05T10:35:18;41.13;;;20.00;;
2299;SDS011;1158;48.750;9.078;2023-03-05T10:40:56;30.07;;;16.20;;
2299;SDS011;1158;48.750;9.078;2023-03-05T10:43:33;29.57;;;15.17;;
2299;SDS011;1158;48.750;9.078;2023-03-05T10:46:09;29.73;;;15.73;;
2299;SDS011;1158;48.750;9.078;2023-03-05T10:48:41;32.83;;;16.87;;
2299;SDS011;1158;48.750;9.078;2023-03-05T10:51:16;34.00;;;17.60;;
2299;SDS011;1158;48.750;9.078;2023-03-05T10:53:49;37.40;;;16.97;;
2299;SDS011;1158;48.750;9.078;2023-03-05T10:56:20;30.70;;;16.17;;
2299;SDS011;1158;48.750;9.078;2023-03-05T10:58:48;27.10;;;15.37;;
2299;SDS011;1158;48.750;9.078;2023-03-05T11:01:21;32.77;;;16.83;;
2299;SDS011;1158;48.750;9.078;2023-03-05T11:03:53;33.00;;;16.70;;
2299;SDS011;1158;48.750;9.078;2023-03-05T11:09:18;28.77;;;16.50;;
2299;SDS011;1158;48.750;9.078;2023-03-05T11:12:00;28.03;;;15.43;;
2299;SDS011;1158;48.750;9.078;2023-03-05T11:14:39;29.83;;;15.07;;
2299;SDS011;1158;48.750;9.078;2023-03-05T11:23:03;31.07;;;15.13;;
2299;SDS011;1158;48.750;9.078;2023-03-05T11:25:34;30.77;;;15.27;;
2299;SDS011;1158;48.750;9.078;2023-03-05T11:28:16;25.90;;;14.27;;
2299;SDS011;1158;48.750;9.078;2023-03-05T11:30:46;30.60;;;14.77;;
2299;SDS011;1158;48.750;9.078;2023-03-05T11:33:21;34.13;;;15.60;;
2299;SDS011;1158;48.750;9.078;2023-03-05T11:35:49;26.17;;;14.33;;
2299;SDS011;1158;48.750;9.078;2023-03-05T11:38:19;28.60;;;15.37;;
2299;SDS011;1158;48.750;9.078;2023-03-05T11:40:48;26.47;;;14.87;;
2299;SDS011;1158;48.750;9.078;2023-03-05T11:43:17;33.70;;;16.20;;
2299;SDS011;1158;48.750;9.078;2023-03-05T11:45:46;35.90;;;15.83;;
2299;SDS011;1158;48.750;9.078;2023-03-05T11:48:17;34.67;;;18.33;;
2299;SDS011;1158;48.750;9.078;2023-03-05T11:50:50;30.03;;;16.63;;
2299;SDS011;1158;48.750;9.078;2023-03-05T11:53:22;34.77;;;17.33;;
2299;SDS011;1158;48.750;9.078;2023-03-05T11:55:53;31.40;;;16.57;;
2299;SDS011;1158;48.750;9.078;2023-03-05T11:58:25;38.53;;;18.47;;
2299;SDS011;1158;48.750;9.078;2023-03-05T12:00:55;32.70;;;16.60;;
2299;SDS011;1158;48.750;9.078;2023-03-05T12:03:24;34.80;;;15.93;;
2299;SDS011;1158;48.750;9.078;2023-03-05T12:05:55;37.90;;;17.13;;
2299;SDS011;1158;48.750;9.078;2023-03-05T12:08:28;42.47;;;18.10;;
2299;SDS011;1158;48.750;9.078;2023-03-05T12:10:58;30.73;;;17.10;;
2299;SDS011;1158;48.750;9.078;2023-03-05T12:13:30;30.67;;;16.50;;
2299;SDS011;1158;48.750;9.078;2023-03-05T12:16:08;34.67;;;17.83;;
2299;SDS011;1158;48.750;9.078;2023-03-05T12:18:50;29.03;;;17.17;;
2299;SDS011;1158;48.750;9.078;2023-03-05T12:21:23;37.33;;;17.60;;
2299;SDS011;1158;48.750;9.078;2023-03-05T12:23:59;39.07;;;19.30;;
2299;SDS011;1158;48.750;9.078;2023-03-05T12:29:26;48.37;;;19.27;;
2299;SDS011;1158;48.750;9.078;2023-03-05T12:31:55;34.90;;;18.77;;
2299;SDS011;1158;48.750;9.078;2023-03-05T12:37:15;41.43;;;20.27;;
2299;SDS011;1158;48.750;9.078;2023-03-05T12:40:21;35.03;;;18.60;;
2299;SDS011;1158;48.750;9.078;2023-03-05T12:42:53;37.20;;;19.53;;
2299;SDS011;1158;48.750;9.078;2023-03-05T12:45:25;45.97;;;20.50;;
2299;SDS011;1158;48.750;9.078;2023-03-05T12:51:01;39.83;;;21.83;;
2299;SDS011;1158;48.750;9.078;2023-03-05T12:53:28;34.40;;;20.13;;
2299;SDS011;1158;48.750;9.078;2023-03-05T12:55:57;38.67;;;18.70;;
2299;SDS011;1158;48.750;9.078;2023-03-05T12:58:33;37.90;;;19.10;;
2299;SDS011;1158;48.750;9.078;2023-03-05T13:01:06;35.03;;;18.77;;
2299;SDS011;1158;48.750;9.078;2023-03-05T13:03:44;32.27;;;17.13;;
2299;SDS011;1158;48.750;9.078;2023-03-05T13:06:24;30.70;;;16.70;;
2299;SDS011;1158;48.750;9.078;2023-03-05T13:08:54;41.13;;;17.33;;
2299;SDS011;1158;48.750;9.078;2023-03-05T13:11:27;27.20;;;15.27;;
2299;SDS011;1158;48.750;9.078;2023-03-05T13:13:56;28.10;;;16.23;;
2299;SDS011;1158;48.750;9.078;2023-03-05T13:16:23;29.33;;;14.33;;
2299;SDS011;1158;48.750;9.078;2023-03-05T13:18:53;27.17;;;14.90;;
2299;SDS011;1158;48.750;9.078;2023-03-05T13:21:23;31.53;;;15.43;;
2299;SDS011;1158;48.750;9.078;2023-03-05T13:23:51;29.17;;;13.93;;
2299;SDS011;1158;48.750;9.078;2023-03-05T13:26:22;29.60;;;15.27;;
2299;SDS011;1158;48.750;9.078;2023-03-05T13:29:08;34.97;;;14.93;;
2299;SDS011;1158;48.750;9.078;2023-03-05T13:31:39;26.43;;;13.30;;
2299;SDS011;1158;48.750;9.078;2023-03-05T13:34:09;26.50;;;14.00;;
2299;SDS011;1158;48.750;9.078;2023-03-05T13:36:44;29.60;;;15.30;;
2299;SDS011;1158;48.750;9.078;2023-03-05T13:39:16;30.77;;;13.53;;
2299;SDS011;1158;48.750;9.078;2023-03-05T13:41:54;23.07;;;12.77;;
2299;SDS011;1158;48.750;9.078;2023-03-05T13:44:26;28.63;;;13.70;;
2299;SDS011;1158;48.750;9.078;2023-03-05T13:47:04;28.13;;;14.57;;
2299;SDS011;1158;48.750;9.078;2023-03-05T13:49:38;25.13;;;12.60;;
2299;SDS011;1158;48.750;9.078;2023-03-05T13:52:05;27.93;;;13.27;;
2299;SDS011;1158;48.750;9.078;2023-03-05T13:54:32;24.40;;;12.90;;
2299;SDS011;1158;48.750;9.078;2023-03-05T13:56:59;24.50;;;12.93;;
2299;SDS011;1158;48.750;9.078;2023-03-05T13:59:30;24.43;;;13.27;;
2299;SDS011;1158;48.750;9.078;2023-03-05T14:01:59;25.63;;;12.70;;
2299;SDS011;1158;48.750;9.078;2023-03-05T14:04:28;29.13;;;13.63;;
2299;SDS011;1158;48.750;9.078;2023-03-05T14:06:58;26.20;;;13.47;;
2299;SDS011;1158;48.750;9.078;2023-03-05T14:09:27;27.47;;;14.10;;
2299;SDS011;1158;48.750;9.078;2023-03-05T14:11:57;30.90;;;13.87;;
2299;SDS011;1158;48.750;9.078;2023-03-05T14:14:26;24.77;;;13.13;;
2299;SDS011;1158;48.750;9.078;2023-03-05T14:16:55;31.43;;;14.03;;
2299;SDS011;1158;48.750;9.078;2023-03-05T14:19:45;27.67;;;13.90;;
2299;SDS011;1158;48.750;9.078;2023-03-05T14:22:26;22.80;;;12.40;;
2299;SDS011;1158;48.750;9.078;2023-03-05T14:24:55;27.17;;;14.20;;
2299;SDS011;1158;48.750;9.078;2023-03-05T14:27:21;27.00;;;13.27;;
2299;SDS011;1158;48.750;9.078;2023-03-05T14:29:48;26.80;;;14.70;;
2299;SDS011;1158;48.750;9.078;2023-03-05T14:32:19;25.97;;;14.40;;
2299;SDS011;1158;48.750;9.078;2023-03-05T14:34:54;25.73;;;14.33;;
2299;SDS011;1158;48.750;9.078;2023-03-05T14:37:24;25.40;;;13.93;;
2299;SDS011;1158;48.750;9.078;2023-03-05T14:39:54;26.80;;;13.80;;
2299;SDS011;1158;48.750;9.078;2023-03-05T14:42:27;26.57;;;14.07;;
2299;SDS011;1158;48.750;9.078;2023-03-05T14:44:59;27.63;;;14.47;;
2299;SDS011;1158;48.750;9.078;2023-03-05T14:47:36;26.90;;;14.73;;
2299;SDS011;1158;48.750;9.078;2023-03-05T14:50:04;26.90;;;14.40;;
2299;SDS011;1158;48.750;9.078;2023-03-05T14:52:31;33.27;;;14.83;;
2299;SDS011;1158;48.750;9.078;2023-03-05T14:55:03;26.97;;;14.30;;
2299;SDS011;1158;48.750;9.078;2023-03-05T14:57:31;36.27;;;15.97;;
2299;SDS011;1158;48.750;9.078;2023-03-05T14:59:58;31.50;;;13.87;;
2299;SDS011;1158;48.750;9.078;2023-03-05T15:02:25;28.40;;;14.87;;
2299;SDS011;1158;48.750;9.078;2023-03-05T15:04:54;28.13;;;15.13;;
2299;SDS011;1158;48.750;9.078;2023-03-05T15:07:24;29.33;;;13.90;;
2299;SDS011;1158;48.750;9.078;2023-03-05T15:09:53;32.43;;;14.80;;
2299;SDS011;1158;48.750;9.078;2023-03-05T15:12:20;30.77;;;15.10;;
2299;SDS011;1158;48.750;9.078;2023-03-05T15:14:51;33.30;;;14.63;;
2299;SDS011;1158;48.750;9.078;2023-03-05T15:17:21;37.80;;;15.73;;
2299;SDS011;1158;48.750;9.078;2023-03-05T15:19:50;32.10;;;15.27;;
2299;SDS011;1158;48.750;9.078;2023-03-05T15:22:19;28.03;;;14.57;;